createdAt,value
2024-03-24T00:00:17.639Z,5.90
2024-03-24T00:03:05.442Z,5.90
2024-03-24T00:05:53.131Z,6.00
2024-03-24T00:08:40.614Z,6.00
2024-03-24T00:11:27.779Z,5.90
2024-03-24T00:14:15.444Z,5.90
2024-03-24T00:17:02.876Z,5.90
2024-03-24T00:19:50.193Z,5.80
2024-03-24T00:22:37.772Z,5.80
2024-03-24T00:25:25.418Z,5.70
2024-03-24T00:28:12.934Z,5.80
2024-03-24T00:31:00.151Z,5.80
2024-03-24T00:33:47.723Z,5.70
2024-03-24T00:36:35.511Z,5.70
2024-03-24T00:39:22.985Z,5.80
2024-03-24T00:42:10.246Z,5.70
2024-03-24T00:44:57.648Z,5.80
2024-03-24T00:47:44.882Z,5.70
2024-03-24T00:50:32.268Z,5.80
2024-03-24T00:53:19.848Z,5.80
2024-03-24T00:56:07.644Z,5.90
2024-03-24T00:58:56.306Z,6.00
2024-03-24T01:01:43.947Z,6.00
2024-03-24T01:04:31.228Z,5.90
2024-03-24T01:07:18.888Z,5.90
2024-03-24T01:10:06.653Z,5.90
2024-03-24T01:12:54.105Z,5.80
2024-03-24T01:15:47.932Z,5.80
2024-03-24T01:18:35.188Z,5.80
2024-03-24T01:21:22.600Z,5.70
2024-03-24T01:24:10.231Z,5.60
2024-03-24T01:26:57.823Z,5.60
2024-03-24T01:29:45.089Z,5.50
2024-03-24T01:32:32.841Z,5.50
2024-03-24T01:35:20.429Z,5.50
2024-03-24T01:38:08.121Z,5.50
2024-03-24T01:40:55.822Z,5.50
2024-03-24T01:43:43.146Z,5.50
2024-03-24T01:46:31.618Z,5.50
2024-03-24T01:49:19.152Z,5.40
2024-03-24T01:52:10.741Z,5.40
2024-03-24T01:54:58.862Z,5.30
2024-03-24T01:57:46.352Z,5.20
2024-03-24T02:00:34.723Z,5.20
2024-03-24T02:03:22.381Z,5.20
2024-03-24T02:06:10.042Z,5.20
2024-03-24T02:08:59.046Z,5.20
2024-03-24T02:11:47.543Z,5.20
2024-03-24T02:14:35.094Z,5.30
2024-03-24T02:17:22.928Z,5.20
2024-03-24T02:20:12.663Z,5.30
2024-03-24T02:23:00.092Z,5.40
2024-03-24T02:25:47.649Z,5.50
2024-03-24T02:28:35.994Z,5.60
2024-03-24T02:31:23.323Z,5.60
2024-03-24T02:34:11.829Z,5.70
2024-03-24T02:36:59.296Z,5.80
2024-03-24T02:39:46.820Z,5.80
2024-03-24T02:42:34.327Z,5.80
2024-03-24T02:45:21.889Z,5.80
2024-03-24T02:48:09.564Z,5.90
2024-03-24T02:50:59.213Z,5.90
2024-03-24T02:53:46.357Z,5.90
2024-03-24T02:56:33.775Z,6.00
2024-03-24T02:59:21.365Z,6.00
2024-03-24T03:02:09.032Z,5.90
2024-03-24T03:04:56.642Z,5.90
2024-03-24T03:07:44.180Z,5.80
2024-03-24T03:10:35.156Z,5.80
2024-03-24T03:13:22.736Z,5.90
2024-03-24T03:16:10.155Z,5.90
2024-03-24T03:18:58.446Z,5.90
2024-03-24T03:21:45.823Z,6.00
2024-03-24T03:24:33.348Z,6.00
2024-03-24T03:27:20.675Z,6.00
2024-03-24T03:30:08.874Z,6.00
2024-03-24T03:32:56.166Z,6.10
2024-03-24T03:35:43.688Z,6.10
2024-03-24T03:38:31.030Z,6.10
2024-03-24T03:41:18.337Z,6.10
2024-03-24T03:44:06.090Z,6.10
2024-03-24T03:46:53.632Z,6.10
2024-03-24T03:49:41.250Z,6.20
2024-03-24T03:52:30.474Z,6.10
2024-03-24T03:55:19.022Z,6.20
2024-03-24T03:58:09.957Z,6.20
2024-03-24T04:00:57.382Z,6.20
2024-03-24T04:03:44.868Z,6.20
2024-03-24T04:06:32.513Z,6.20
2024-03-24T04:09:20.591Z,6.20
2024-03-24T04:12:08.835Z,6.20
2024-03-24T04:14:56.464Z,6.30
2024-03-24T04:17:43.929Z,6.20
2024-03-24T04:20:31.213Z,6.20
2024-03-24T04:23:18.732Z,6.30
2024-03-24T04:26:06.376Z,6.30
2024-03-24T04:28:54.155Z,6.20
2024-03-24T04:31:43.378Z,6.10
2024-03-24T04:34:30.995Z,6.10
2024-03-24T04:37:18.432Z,6.10
2024-03-24T04:40:09.824Z,6.20
2024-03-24T04:42:57.283Z,6.10
2024-03-24T04:45:45.206Z,6.10
2024-03-24T04:48:32.805Z,6.00
2024-03-24T04:51:20.544Z,5.90
2024-03-24T04:54:08.943Z,6.00
2024-03-24T04:56:56.610Z,5.90
2024-03-24T04:59:44.725Z,5.90
2024-03-24T05:02:32.090Z,5.90
2024-03-24T05:05:19.526Z,5.80
2024-03-24T05:08:07.913Z,5.80
2024-03-24T05:10:55.540Z,5.70
2024-03-24T05:13:42.954Z,5.70
2024-03-24T05:16:31.883Z,5.60
2024-03-24T05:19:19.183Z,5.70
2024-03-24T05:22:06.873Z,5.70
2024-03-24T05:24:54.945Z,5.70
2024-03-24T05:27:42.598Z,5.70
2024-03-24T05:30:30.176Z,5.70
2024-03-24T05:33:18.003Z,5.70
2024-03-24T05:36:05.426Z,5.70
2024-03-24T05:38:53.090Z,5.70
2024-03-24T05:41:40.675Z,5.60
2024-03-24T05:44:28.264Z,5.60
2024-03-24T05:47:15.877Z,5.60
2024-03-24T05:50:03.429Z,5.60
2024-03-24T05:52:52.169Z,5.70
2024-03-24T05:55:39.707Z,5.70
2024-03-24T05:58:27.208Z,5.70
2024-03-24T06:01:14.423Z,5.70
2024-03-24T06:04:03.793Z,5.90
2024-03-24T06:06:51.046Z,5.90
2024-03-24T06:09:39.483Z,5.90
2024-03-24T06:12:28.267Z,6.00
2024-03-24T06:15:15.754Z,6.10
2024-03-24T06:18:04.960Z,6.10
2024-03-24T06:20:54.278Z,6.00
2024-03-24T06:23:41.656Z,6.00
2024-03-24T06:26:28.893Z,6.10
2024-03-24T06:29:16.408Z,6.20
2024-03-24T06:32:04.145Z,6.10
2024-03-24T06:34:51.444Z,6.00
2024-03-24T06:37:39.680Z,6.20
2024-03-24T06:40:27.095Z,6.30
2024-03-24T06:43:16.584Z,6.30
2024-03-24T06:46:03.983Z,6.10
2024-03-24T06:48:51.265Z,6.10
2024-03-24T06:51:38.607Z,6.30
2024-03-24T06:54:26.238Z,6.40
2024-03-24T06:57:13.404Z,6.30
2024-03-24T07:00:00.998Z,6.30
2024-03-24T07:02:49.350Z,6.30
2024-03-24T07:05:36.993Z,6.50
2024-03-24T07:08:24.429Z,6.60
2024-03-24T07:11:11.756Z,6.50
2024-03-24T07:13:59.295Z,6.40
2024-03-24T07:16:46.459Z,6.50
2024-03-24T07:19:33.898Z,6.60
2024-03-24T07:22:21.305Z,6.70
2024-03-24T07:25:09.113Z,6.70
2024-03-24T07:27:56.580Z,6.80
2024-03-24T07:30:44.131Z,6.80
2024-03-24T07:33:33.981Z,6.90
2024-03-24T07:36:20.622Z,7.00
2024-03-24T07:39:07.836Z,7.20
2024-03-24T07:41:55.368Z,7.10
2024-03-24T07:44:43.524Z,7.00
2024-03-24T07:47:30.941Z,7.10
2024-03-24T07:50:18.570Z,7.10
2024-03-24T07:53:06.605Z,7.00
2024-03-24T07:55:54.317Z,7.10
2024-03-24T07:58:43.036Z,7.10
2024-03-24T08:01:30.661Z,7.20
2024-03-24T08:04:17.963Z,7.30
2024-03-24T08:07:05.881Z,7.20
2024-03-24T08:09:53.432Z,7.30
2024-03-24T08:12:41.603Z,7.20
2024-03-24T08:15:29.054Z,7.10
2024-03-24T08:18:16.702Z,7.10
2024-03-24T08:21:04.532Z,7.10
2024-03-24T08:23:52.108Z,7.00
2024-03-24T08:26:39.850Z,7.10
2024-03-24T08:29:27.324Z,7.20
2024-03-24T08:32:15.691Z,7.20
2024-03-24T08:35:03.078Z,7.30
2024-03-24T08:37:50.853Z,7.30
2024-03-24T08:40:38.093Z,7.30
2024-03-24T08:43:25.493Z,7.50
2024-03-24T08:46:14.508Z,7.40
2024-03-24T08:49:02.391Z,7.60
2024-03-24T08:51:51.276Z,7.60
2024-03-24T08:54:38.608Z,7.50
2024-03-24T08:57:25.980Z,7.60
2024-03-24T09:00:14.208Z,7.70
2024-03-24T09:03:01.498Z,7.80
2024-03-24T09:05:48.981Z,7.80
2024-03-24T09:08:36.547Z,7.80
2024-03-24T09:11:23.997Z,7.90
2024-03-24T09:14:11.416Z,7.90
2024-03-24T09:16:58.937Z,7.90
2024-03-24T09:19:47.146Z,7.90
2024-03-24T09:22:34.682Z,8.10
2024-03-24T09:25:21.987Z,8.20
2024-03-24T09:28:10.344Z,8.40
2024-03-24T09:31:05.649Z,8.10
2024-03-24T09:33:53.023Z,8.10
2024-03-24T09:36:41.000Z,8.10
2024-03-24T09:39:28.545Z,8.00
2024-03-24T09:42:19.050Z,8.20
2024-03-24T09:45:07.635Z,8.10
2024-03-24T09:47:55.892Z,8.10
2024-03-24T09:50:44.012Z,8.20
2024-03-24T09:53:32.586Z,8.30
2024-03-24T09:56:22.522Z,8.20
2024-03-24T09:59:10.412Z,8.20
2024-03-24T10:01:57.936Z,8.40
2024-03-24T10:04:46.980Z,8.50
2024-03-24T10:07:34.229Z,8.50
2024-03-24T10:10:21.972Z,8.40
2024-03-24T10:13:11.056Z,8.50
2024-03-24T10:15:58.957Z,8.60
2024-03-24T10:18:46.479Z,8.80
2024-03-24T10:21:33.879Z,8.60
2024-03-24T10:24:23.575Z,8.30
2024-03-24T10:27:11.608Z,7.90
2024-03-24T10:29:58.906Z,7.70
2024-03-24T10:32:46.656Z,7.70
2024-03-24T10:35:34.271Z,7.90
2024-03-24T10:38:21.838Z,8.20
2024-03-24T10:41:09.869Z,8.70
2024-03-24T10:43:59.050Z,9.30
2024-03-24T10:46:47.819Z,9.80
2024-03-24T10:49:37.118Z,10.30
2024-03-24T10:52:25.670Z,10.60
2024-03-24T10:55:14.635Z,11.00
2024-03-24T10:58:02.477Z,11.10
2024-03-24T11:00:50.656Z,11.10
2024-03-24T11:03:39.871Z,11.40
2024-03-24T11:06:29.835Z,11.60
2024-03-24T11:09:17.164Z,11.50
2024-03-24T11:12:05.882Z,11.10
2024-03-24T11:14:53.686Z,11.30
2024-03-24T11:17:41.688Z,11.30
2024-03-24T11:20:28.882Z,11.10
2024-03-24T11:23:25.976Z,11.00
2024-03-24T11:26:22.332Z,10.70
2024-03-24T11:29:09.535Z,10.40
2024-03-24T11:31:57.184Z,10.20
2024-03-24T11:34:54.037Z,9.60
2024-03-24T11:37:43.749Z,8.60
2024-03-24T11:40:31.654Z,8.50
2024-03-24T11:43:20.748Z,8.50
2024-03-24T11:46:12.185Z,8.80
2024-03-24T11:49:02.487Z,9.20
2024-03-24T11:51:51.325Z,9.90
2024-03-24T11:54:39.173Z,10.20
2024-03-24T11:57:26.874Z,10.80
2024-03-24T12:00:14.327Z,10.80
2024-03-24T12:03:01.949Z,11.00
2024-03-24T12:05:52.501Z,11.10
2024-03-24T12:08:40.628Z,11.00
2024-03-24T12:11:28.252Z,11.10
2024-03-24T12:14:17.224Z,11.40
2024-03-24T12:17:10.270Z,12.00
2024-03-24T12:19:55.827Z,12.10
2024-03-24T12:22:45.944Z,12.30
2024-03-24T12:25:33.997Z,12.80
2024-03-24T12:28:21.789Z,12.90
2024-03-24T12:31:10.388Z,12.90
2024-03-24T12:33:57.716Z,13.00
2024-03-24T12:36:45.340Z,13.40
2024-03-24T12:39:32.633Z,13.40
2024-03-24T12:42:21.518Z,13.40
2024-03-24T12:45:11.757Z,12.90
2024-03-24T12:48:02.020Z,12.60
2024-03-24T12:50:49.755Z,12.70
2024-03-24T12:53:49.295Z,12.40
2024-03-24T12:56:36.769Z,12.80
2024-03-24T12:59:24.092Z,13.00
2024-03-24T13:02:11.863Z,13.00
2024-03-24T13:04:59.183Z,13.10
2024-03-24T13:07:47.060Z,13.10
2024-03-24T13:10:35.020Z,12.90
2024-03-24T13:13:22.633Z,13.10
2024-03-24T13:16:11.514Z,12.80
2024-03-24T13:19:02.455Z,12.30
2024-03-24T13:21:58.959Z,12.30
2024-03-24T13:24:49.599Z,12.70
2024-03-24T13:27:48.988Z,13.10
2024-03-24T13:30:37.811Z,13.10
2024-03-24T13:33:25.550Z,13.20
2024-03-24T13:36:24.859Z,13.20
2024-03-24T13:39:27.072Z,12.90
2024-03-24T13:42:17.547Z,13.10
2024-03-24T13:45:10.637Z,13.30
2024-03-24T13:48:12.710Z,13.40
2024-03-24T13:51:02.016Z,13.50
2024-03-24T13:53:51.195Z,13.60
2024-03-24T13:56:38.425Z,13.00
2024-03-24T13:59:26.050Z,12.50
2024-03-24T14:02:15.884Z,11.20
2024-03-24T14:05:03.874Z,10.40
2024-03-24T14:07:51.136Z,10.00
2024-03-24T14:10:38.961Z,9.80
2024-03-24T14:13:38.563Z,9.50
2024-03-24T14:16:38.617Z,9.50
2024-03-24T14:19:43.956Z,9.30
2024-03-24T14:22:34.547Z,9.20
2024-03-24T14:25:30.695Z,9.00
2024-03-24T14:28:18.170Z,8.90
2024-03-24T14:31:05.847Z,8.80
2024-03-24T14:33:53.006Z,8.80
2024-03-24T14:36:49.621Z,8.60
2024-03-24T14:40:11.772Z,8.80
2024-03-24T14:43:10.997Z,8.80
2024-03-24T14:46:20.915Z,9.20
2024-03-24T14:49:10.996Z,9.20
2024-03-24T14:51:58.227Z,9.20
2024-03-24T14:54:45.750Z,9.20
2024-03-24T14:57:33.292Z,9.30
2024-03-24T15:00:22.588Z,9.20
2024-03-24T15:03:09.875Z,9.20
2024-03-24T15:05:57.543Z,9.20
2024-03-24T15:08:45.386Z,9.20
2024-03-24T15:11:33.051Z,9.30
2024-03-24T15:14:21.566Z,9.40
2024-03-24T15:17:09.011Z,9.60
2024-03-24T15:19:56.379Z,9.90
2024-03-24T15:22:43.940Z,10.30
2024-03-24T15:25:31.453Z,10.60
2024-03-24T15:28:18.925Z,10.60
2024-03-24T15:31:06.313Z,10.50
2024-03-24T15:33:53.604Z,10.20
2024-03-24T15:36:41.190Z,10.00
2024-03-24T15:39:28.842Z,10.00
2024-03-24T15:42:16.181Z,10.20
2024-03-24T15:45:06.894Z,10.10
2024-03-24T15:47:54.492Z,9.90
2024-03-24T15:50:43.651Z,10.10
2024-03-24T15:53:31.046Z,10.30
2024-03-24T15:56:27.365Z,10.40
2024-03-24T15:59:18.296Z,10.40
2024-03-24T16:02:28.050Z,10.30
2024-03-24T16:05:15.442Z,10.20
2024-03-24T16:08:03.868Z,10.20
2024-03-24T16:10:57.667Z,10.40
2024-03-24T16:13:55.796Z,10.70
2024-03-24T16:16:43.650Z,10.60
2024-03-24T16:19:31.330Z,10.60
2024-03-24T16:22:30.630Z,10.20
2024-03-24T16:25:18.202Z,10.10
2024-03-24T16:28:05.496Z,10.00
2024-03-24T16:30:53.064Z,10.00
2024-03-24T16:33:40.278Z,9.90
2024-03-24T16:36:27.927Z,9.90
2024-03-24T16:39:15.311Z,10.10
2024-03-24T16:42:03.710Z,10.10
2024-03-24T16:44:53.922Z,10.20
2024-03-24T16:47:41.675Z,10.40
2024-03-24T16:50:29.309Z,10.50
2024-03-24T16:53:17.083Z,10.60
2024-03-24T16:56:04.385Z,10.50
2024-03-24T16:58:52.158Z,10.20
2024-03-24T17:01:39.845Z,10.10
2024-03-24T17:04:27.319Z,10.00
2024-03-24T17:07:15.020Z,10.00
2024-03-24T17:10:03.786Z,9.90
2024-03-24T17:12:52.855Z,9.80
2024-03-24T17:15:40.111Z,9.90
2024-03-24T17:18:27.668Z,9.90
2024-03-24T17:21:15.059Z,9.70
2024-03-24T17:24:04.813Z,9.70
2024-03-24T17:26:52.577Z,9.50
2024-03-24T17:29:39.995Z,9.50
2024-03-24T17:32:27.531Z,9.40
2024-03-24T17:35:14.889Z,9.60
2024-03-24T17:38:02.234Z,9.50
2024-03-24T17:40:49.669Z,9.50
2024-03-24T17:43:37.338Z,9.50
2024-03-24T17:46:24.687Z,9.40
2024-03-24T17:49:12.430Z,9.50
2024-03-24T17:52:00.253Z,9.50
2024-03-24T17:54:47.598Z,9.50
2024-03-24T17:57:35.123Z,9.30
2024-03-24T18:00:22.434Z,9.30
2024-03-24T18:03:10.507Z,9.20
2024-03-24T18:05:57.965Z,9.10
2024-03-24T18:09:03.799Z,9.10
2024-03-24T18:11:51.396Z,9.00
2024-03-24T18:14:39.109Z,9.00
2024-03-24T18:17:26.460Z,9.00
2024-03-24T18:20:14.023Z,9.00
2024-03-24T18:23:02.234Z,9.10
2024-03-24T18:25:49.862Z,9.00
2024-03-24T18:28:40.197Z,8.90
2024-03-24T18:31:26.965Z,8.90
2024-03-24T18:34:19.885Z,8.90
2024-03-24T18:37:05.593Z,8.80
2024-03-24T18:39:53.161Z,8.80
2024-03-24T18:42:40.562Z,8.80
2024-03-24T18:45:28.109Z,8.90
2024-03-24T18:48:15.498Z,8.90
2024-03-24T18:51:03.415Z,8.90
2024-03-24T18:53:51.551Z,8.90
2024-03-24T18:56:38.922Z,8.90
2024-03-24T18:59:26.840Z,8.90
2024-03-24T19:02:15.569Z,9.00
2024-03-24T19:05:04.326Z,9.00
2024-03-24T19:07:51.776Z,9.00
2024-03-24T19:10:40.218Z,8.90
2024-03-24T19:13:27.689Z,8.90
2024-03-24T19:16:16.026Z,9.00
2024-03-24T19:19:03.276Z,8.90
2024-03-24T19:21:51.133Z,9.00
2024-03-24T19:24:38.941Z,8.70
2024-03-24T19:27:27.059Z,8.60
2024-03-24T19:30:16.929Z,8.70
2024-03-24T19:33:04.726Z,8.80
2024-03-24T19:35:52.480Z,8.90
2024-03-24T19:38:39.749Z,8.90
2024-03-24T19:41:27.352Z,8.90
2024-03-24T19:44:15.131Z,8.80
2024-03-24T19:47:02.889Z,8.80
2024-03-24T19:49:50.133Z,8.80
2024-03-24T19:52:37.641Z,8.90
2024-03-24T19:55:25.509Z,9.00
2024-03-24T19:58:13.223Z,9.10
2024-03-24T20:01:00.653Z,9.10
2024-03-24T20:03:48.168Z,9.00
2024-03-24T20:06:35.387Z,9.00
2024-03-24T20:09:24.012Z,9.00
2024-03-24T20:12:13.551Z,9.00
2024-03-24T20:15:02.428Z,8.90
2024-03-24T20:17:50.183Z,8.90
2024-03-24T20:20:40.985Z,8.90
2024-03-24T20:23:28.174Z,8.90
2024-03-24T20:26:15.546Z,8.90
2024-03-24T20:29:04.135Z,8.80
2024-03-24T20:31:52.021Z,8.90
2024-03-24T20:34:39.543Z,9.00
2024-03-24T20:37:27.334Z,9.00
2024-03-24T20:40:15.076Z,9.00
2024-03-24T20:43:02.369Z,9.00
2024-03-24T20:45:49.580Z,9.00
2024-03-24T20:48:37.188Z,9.10
2024-03-24T20:51:25.088Z,8.90
2024-03-24T20:54:13.926Z,8.90
2024-03-24T20:57:01.348Z,9.00
2024-03-24T20:59:48.824Z,9.00
2024-03-24T21:02:36.233Z,9.00
2024-03-24T21:05:25.696Z,9.00
2024-03-24T21:08:13.186Z,9.00
2024-03-24T21:11:00.726Z,9.00
2024-03-24T21:13:50.425Z,9.10
2024-03-24T21:16:38.022Z,8.90
2024-03-24T21:19:25.329Z,8.90
2024-03-24T21:22:12.802Z,8.90
2024-03-24T21:25:00.416Z,8.90
2024-03-24T21:27:48.586Z,8.80
2024-03-24T21:30:36.081Z,8.90
2024-03-24T21:33:23.479Z,9.00
2024-03-24T21:36:12.077Z,9.00
2024-03-24T21:39:17.398Z,8.90
2024-03-24T21:42:11.898Z,9.00
2024-03-24T21:44:59.318Z,9.00
2024-03-24T21:47:47.080Z,9.00
2024-03-24T21:50:34.478Z,9.10
2024-03-24T21:53:22.104Z,9.00
2024-03-24T21:56:10.192Z,9.00
2024-03-24T21:58:57.465Z,9.10
2024-03-24T22:01:45.236Z,9.10
2024-03-24T22:04:32.599Z,9.00
2024-03-24T22:07:35.124Z,8.90
2024-03-24T22:10:10.431Z,8.90
2024-03-24T22:12:58.098Z,9.00
2024-03-24T22:15:45.848Z,8.90
2024-03-24T22:18:33.227Z,8.80
2024-03-24T22:21:21.018Z,8.80
2024-03-24T22:24:08.976Z,9.00
2024-03-24T22:26:56.190Z,9.00
2024-03-24T22:29:44.326Z,9.10
2024-03-24T22:32:31.894Z,9.10
2024-03-24T22:35:20.045Z,9.10
2024-03-24T22:38:07.666Z,9.00
2024-03-24T22:40:55.049Z,9.00
2024-03-24T22:43:42.586Z,9.00
2024-03-24T22:46:30.391Z,8.90
2024-03-24T22:49:17.535Z,8.90
2024-03-24T22:52:05.269Z,9.00
2024-03-24T22:54:52.825Z,8.90
2024-03-24T22:57:40.230Z,8.90
2024-03-24T23:00:29.065Z,8.90
2024-03-24T23:03:16.332Z,8.90
2024-03-24T23:06:04.217Z,9.00
2024-03-24T23:08:52.093Z,9.10
2024-03-24T23:11:39.417Z,9.10
2024-03-24T23:14:27.041Z,9.00
2024-03-24T23:17:14.912Z,9.10
2024-03-24T23:20:03.839Z,9.10
2024-03-24T23:22:51.386Z,9.10
2024-03-24T23:25:38.907Z,9.00
2024-03-24T23:28:26.671Z,8.90
2024-03-24T23:31:13.896Z,8.80
2024-03-24T23:34:01.543Z,8.90
2024-03-24T23:36:48.936Z,8.80
2024-03-24T23:39:36.275Z,8.90
2024-03-24T23:42:23.548Z,9.00
2024-03-24T23:45:11.185Z,9.00
2024-03-24T23:47:59.790Z,9.10
2024-03-24T23:50:47.041Z,9.20
2024-03-24T23:53:34.514Z,9.10
2024-03-24T23:56:22.119Z,9.00
2024-03-24T23:59:09.788Z,9.00
